sensor_id;sensor_type;location;lat;lon;timestamp;pressure;altitude;pressure_sealevel;temperature;humidity
6038;BME280;3047;42.600;23.470;2023-02-04T00:01:21;92798.84;;;2.47;97.59
6038;BME280;3047;42.600;23.470;2023-02-04T00:03:47;92799.75;;;2.29;100.00
6038;BME280;3047;42.600;23.470;2023-02-04T00:06:14;92789.78;;;2.32;100.00
6038;BME280;3047;42.600;23.470;2023-02-04T00:08:41;92791.44;;;2.30;100.00
6038;BME280;3047;42.600;23.470;2023-02-04T00:11:08;92795.59;;;2.30;100.00
6038;BME280;3047;42.600;23.470;2023-02-04T00:13:36;92795.59;;;2.25;100.00
6038;BME280;3047;42.600;23.470;2023-02-04T00:16:03;92797.25;;;2.34;100.00
6038;BME280;3047;42.600;23.470;2023-02-04T00:18:30;92781.47;;;2.22;100.00
6038;BME280;3047;42.600;23.470;2023-02-04T00:20:57;92788.16;;;2.19;100.00
6038;BME280;3047;42.600;23.470;2023-02-04T00:23:23;92795.63;;;2.20;100.00
6038;BME280;3047;42.600;23.470;2023-02-04T00:25:50;92787.31;;;2.14;100.00
6038;BME280;3047;42.600;23.470;2023-02-04T00:28:17;92783.97;;;2.18;100.00
6038;BME280;3047;42.600;23.470;2023-02-04T00:30:45;92777.38;;;2.15;100.00
6038;BME280;3047;42.600;23.470;2023-02-04T00:33:12;92783.16;;;2.16;100.00
6038;BME280;3047;42.600;23.470;2023-02-04T00:35:40;92788.13;;;2.22;100.00
6038;BME280;3047;42.600;23.470;2023-02-04T00:38:07;92786.47;;;2.22;100.00
6038;BME280;3047;42.600;23.470;2023-02-04T00:40:33;92779.81;;;2.18;100.00
6038;BME280;3047;42.600;23.470;2023-02-04T00:43:00;92782.34;;;2.15;100.00
6038;BME280;3047;42.600;23.470;2023-02-04T00:45:27;92790.63;;;2.17;100.00
6038;BME280;3047;42.600;23.470;2023-02-04T00:47:55;92780.69;;;2.16;100.00
6038;BME280;3047;42.600;23.470;2023-02-04T00:50:22;92779.00;;;2.16;100.00
6038;BME280;3047;42.600;23.470;2023-02-04T00:52:49;92775.69;;;2.16;100.00
6038;BME280;3047;42.600;23.470;2023-02-04T00:55:17;92778.16;;;2.14;100.00
6038;BME280;3047;42.600;23.470;2023-02-04T00:57:44;92780.66;;;2.10;100.00
6038;BME280;3047;42.600;23.470;2023-02-04T01:00:13;92782.38;;;2.03;100.00
6038;BME280;3047;42.600;23.470;2023-02-04T01:02:40;92770.75;;;1.96;100.00
6038;BME280;3047;42.600;23.470;2023-02-04T01:05:08;92760.78;;;1.96;100.00
6038;BME280;3047;42.600;23.470;2023-02-04T01:07:35;92759.94;;;1.97;100.00
6038;BME280;3047;42.600;23.470;2023-02-04T01:10:03;92748.31;;;1.94;100.00
6038;BME280;3047;42.600;23.470;2023-02-04T01:12:30;92750.84;;;1.87;100.00
6038;BME280;3047;42.600;23.470;2023-02-04T01:14:56;92742.53;;;1.80;100.00
6038;BME280;3047;42.600;23.470;2023-02-04T01:17:23;92729.25;;;1.80;100.00
6038;BME280;3047;42.600;23.470;2023-02-04T01:19:50;92737.53;;;1.74;100.00
6038;BME280;3047;42.600;23.470;2023-02-04T01:22:18;92722.59;;;1.74;100.00
6038;BME280;3047;42.600;23.470;2023-02-04T01:24:45;92725.97;;;1.64;100.00
6038;BME280;3047;42.600;23.470;2023-02-04T01:27:13;92718.47;;;1.68;100.00
6038;BME280;3047;42.600;23.470;2023-02-04T01:29:40;92720.16;;;1.59;100.00
6038;BME280;3047;42.600;23.470;2023-02-04T01:32:07;92679.50;;;1.41;100.00
6038;BME280;3047;42.600;23.470;2023-02-04T01:34:33;92711.03;;;1.75;100.00
6038;BME280;3047;42.600;23.470;2023-02-04T01:37:00;92699.41;;;1.75;100.00
6038;BME280;3047;42.600;23.470;2023-02-04T01:39:28;92696.09;;;1.64;100.00
6038;BME280;3047;42.600;23.470;2023-02-04T01:41:55;92679.50;;;1.52;100.00
6038;BME280;3047;42.600;23.470;2023-02-04T01:44:22;92678.69;;;1.47;100.00
6038;BME280;3047;42.600;23.470;2023-02-04T01:46:49;92688.66;;;1.47;100.00
6038;BME280;3047;42.600;23.470;2023-02-04T01:49:16;92682.81;;;1.57;100.00
6038;BME280;3047;42.600;23.470;2023-02-04T01:51:43;92672.84;;;1.62;100.00
6038;BME280;3047;42.600;23.470;2023-02-04T01:54:11;92668.72;;;1.67;100.00
6038;BME280;3047;42.600;23.470;2023-02-04T01:56:42;92671.16;;;1.70;100.00
6038;BME280;3047;42.600;23.470;2023-02-04T01:59:11;92646.31;;;1.62;100.00
6038;BME280;3047;42.600;23.470;2023-02-04T02:01:40;92672.81;;;1.83;100.00
6038;BME280;3047;42.600;23.470;2023-02-04T02:04:07;92675.28;;;1.89;100.00
6038;BME280;3047;42.600;23.470;2023-02-04T02:06:35;92671.09;;;1.94;100.00
6038;BME280;3047;42.600;23.470;2023-02-04T02:09:03;92667.81;;;1.98;100.00
6038;BME280;3047;42.600;23.470;2023-02-04T02:11:31;92660.31;;;2.02;100.00
6038;BME280;3047;42.600;23.470;2023-02-04T02:13:59;92661.97;;;2.00;100.00
6038;BME280;3047;42.600;23.470;2023-02-04T02:16:26;92653.66;;;2.04;100.00
6038;BME280;3047;42.600;23.470;2023-02-04T02:18:53;92654.44;;;2.13;100.00
6038;BME280;3047;42.600;23.470;2023-02-04T02:21:30;92653.63;;;2.10;100.00
6038;BME280;3047;42.600;23.470;2023-02-04T02:23:59;92634.50;;;2.16;100.00
6038;BME280;3047;42.600;23.470;2023-02-04T02:26:26;92631.97;;;2.22;100.00
6038;BME280;3047;42.600;23.470;2023-02-04T02:28:53;92612.13;;;2.07;100.00
6038;BME280;3047;42.600;23.470;2023-02-04T02:31:21;92623.72;;;2.16;100.00
6038;BME280;3047;42.600;23.470;2023-02-04T02:33:48;92540.88;;;1.80;100.00
6038;BME280;3047;42.600;23.470;2023-02-04T02:36:15;92602.03;;;2.30;100.00
6038;BME280;3047;42.600;23.470;2023-02-04T02:38:43;92576.41;;;2.11;100.00
6038;BME280;3047;42.600;23.470;2023-02-04T02:41:11;92579.66;;;2.26;100.00
6038;BME280;3047;42.600;23.470;2023-02-04T02:43:38;92572.19;;;2.26;100.00
6038;BME280;3047;42.600;23.470;2023-02-04T02:46:05;92575.53;;;2.21;100.00
6038;BME280;3047;42.600;23.470;2023-02-04T02:48:32;92567.31;;;2.04;100.00
6038;BME280;3047;42.600;23.470;2023-02-04T02:50:59;92572.31;;;1.98;100.00
6038;BME280;3047;42.600;23.470;2023-02-04T02:53:25;92575.66;;;1.98;100.00
6038;BME280;3047;42.600;23.470;2023-02-04T02:55:52;92558.22;;;1.98;100.00
6038;BME280;3047;42.600;23.470;2023-02-04T02:58:23;92542.44;;;1.93;100.00
6038;BME280;3047;42.600;23.470;2023-02-04T03:00:51;92567.47;;;1.64;100.00
6038;BME280;3047;42.600;23.470;2023-02-04T03:03:20;92568.31;;;1.60;100.00
6038;BME280;3047;42.600;23.470;2023-02-04T03:05:52;92557.53;;;1.63;100.00
6038;BME280;3047;42.600;23.470;2023-02-04T03:08:20;92573.31;;;1.57;100.00
6038;BME280;3047;42.600;23.470;2023-02-04T03:10:47;92579.13;;;1.56;100.00
6038;BME280;3047;42.600;23.470;2023-02-04T03:13:15;92594.03;;;1.67;100.00
6038;BME280;3047;42.600;23.470;2023-02-04T03:15:44;92565.06;;;1.35;100.00
6038;BME280;3047;42.600;23.470;2023-02-04T03:18:13;92577.50;;;1.51;100.00
6038;BME280;3047;42.600;23.470;2023-02-04T03:20:42;92584.88;;;1.69;100.00
6038;BME280;3047;42.600;23.470;2023-02-04T03:23:09;92431.78;;;0.70;100.00
6038;BME280;3047;42.600;23.470;2023-02-04T03:25:35;92581.56;;;1.70;100.00
6038;BME280;3047;42.600;23.470;2023-02-04T03:28:03;92551.75;;;1.53;100.00
6038;BME280;3047;42.600;23.470;2023-02-04T03:30:30;92572.41;;;1.83;100.00
6038;BME280;3047;42.600;23.470;2023-02-04T03:32:58;92570.72;;;1.88;100.00
6038;BME280;3047;42.600;23.470;2023-02-04T03:35:25;92567.38;;;1.92;100.00
6038;BME280;3047;42.600;23.470;2023-02-04T03:37:51;92534.97;;;1.96;100.00
6038;BME280;3047;42.600;23.470;2023-02-04T03:40:18;92541.56;;;2.02;100.00
6038;BME280;3047;42.600;23.470;2023-02-04T03:42:45;92541.63;;;1.99;100.00
6038;BME280;3047;42.600;23.470;2023-02-04T03:45:12;92544.88;;;2.09;100.00
6038;BME280;3047;42.600;23.470;2023-02-04T03:47:39;92539.84;;;2.13;100.00
6038;BME280;3047;42.600;23.470;2023-02-04T03:50:07;92545.75;;;1.94;100.00
6038;BME280;3047;42.600;23.470;2023-02-04T03:52:35;92541.72;;;1.71;100.00
6038;BME280;3047;42.600;23.470;2023-02-04T03:55:02;92530.03;;;1.89;100.00
6038;BME280;3047;42.600;23.470;2023-02-04T03:57:29;92525.78;;;2.06;100.00
6038;BME280;3047;42.600;23.470;2023-02-04T03:59:55;92517.50;;;2.04;100.00
6038;BME280;3047;42.600;23.470;2023-02-04T04:02:22;92524.91;;;2.10;100.00
6038;BME280;3047;42.600;23.470;2023-02-04T04:04:49;92518.28;;;2.09;100.00
6038;BME280;3047;42.600;23.470;2023-02-04T04:07:17;92501.69;;;2.10;100.00
6038;BME280;3047;42.600;23.470;2023-02-04T04:09:44;92503.31;;;2.17;100.00
6038;BME280;3047;42.600;23.470;2023-02-04T04:12:10;92495.78;;;2.21;100.00
6038;BME280;3047;42.600;23.470;2023-02-04T04:14:37;92499.91;;;2.32;100.00
6038;BME280;3047;42.600;23.470;2023-02-04T04:17:04;92432.84;;;1.98;100.00
6038;BME280;3047;42.600;23.470;2023-02-04T04:19:31;92487.41;;;2.33;100.00
6038;BME280;3047;42.600;23.470;2023-02-04T04:21:58;92484.94;;;2.30;100.00
6038;BME280;3047;42.600;23.470;2023-02-04T04:24:26;92482.44;;;2.33;100.00
6038;BME280;3047;42.600;23.470;2023-02-04T04:26:52;92477.47;;;2.29;100.00
6038;BME280;3047;42.600;23.470;2023-02-04T04:29:19;92485.00;;;2.21;100.00
6038;BME280;3047;42.600;23.470;2023-02-04T04:31:46;92483.31;;;2.28;100.00
6038;BME280;3047;42.600;23.470;2023-02-04T04:34:13;92488.25;;;2.35;100.00
6038;BME280;3047;42.600;23.470;2023-02-04T04:36:39;92495.66;;;2.41;100.00
6038;BME280;3047;42.600;23.470;2023-02-04T04:39:06;92503.97;;;2.42;100.00
6038;BME280;3047;42.600;23.470;2023-02-04T04:41:34;92503.97;;;2.43;100.00
6038;BME280;3047;42.600;23.470;2023-02-04T04:44:01;92503.91;;;2.46;100.00
6038;BME280;3047;42.600;23.470;2023-02-04T04:46:28;92517.19;;;2.52;100.00
6038;BME280;3047;42.600;23.470;2023-02-04T04:48:54;92522.97;;;2.54;100.00
6038;BME280;3047;42.600;23.470;2023-02-04T04:51:21;92513.03;;;2.52;100.00
6038;BME280;3047;42.600;23.470;2023-02-04T04:53:48;92522.25;;;2.41;100.00
6038;BME280;3047;42.600;23.470;2023-02-04T04:56:14;92527.16;;;2.50;100.00
6038;BME280;3047;42.600;23.470;2023-02-04T04:58:44;92529.69;;;2.48;100.00
6038;BME280;3047;42.600;23.470;2023-02-04T05:01:11;92529.59;;;2.58;100.00
6038;BME280;3047;42.600;23.470;2023-02-04T05:03:38;92535.44;;;2.57;100.00
6038;BME280;3047;42.600;23.470;2023-02-04T05:06:04;92523.81;;;2.54;100.00
6038;BME280;3047;42.600;23.470;2023-02-04T05:08:32;92518.03;;;2.49;100.00
6038;BME280;3047;42.600;23.470;2023-02-04T05:11:00;92530.38;;;2.63;100.00
6038;BME280;3047;42.600;23.470;2023-02-04T05:13:27;92517.16;;;2.55;100.00
6038;BME280;3047;42.600;23.470;2023-02-04T05:15:55;92528.69;;;2.66;100.00
6038;BME280;3047;42.600;23.470;2023-02-04T05:18:22;92537.91;;;2.60;100.00
6038;BME280;3047;42.600;23.470;2023-02-04T05:20:48;92532.91;;;2.58;100.00
6038;BME280;3047;42.600;23.470;2023-02-04T05:23:15;92541.22;;;2.59;100.00
6038;BME280;3047;42.600;23.470;2023-02-04T05:25:42;92548.75;;;2.53;100.00
6038;BME280;3047;42.600;23.470;2023-02-04T05:28:09;92547.94;;;2.49;100.00
6038;BME280;3047;42.600;23.470;2023-02-04T05:30:35;92542.16;;;2.42;100.00
6038;BME280;3047;42.600;23.470;2023-02-04T05:33:04;92524.03;;;2.22;100.00
6038;BME280;3047;42.600;23.470;2023-02-04T05:35:30;92555.47;;;2.41;100.00
6038;BME280;3047;42.600;23.470;2023-02-04T05:37:57;92574.63;;;2.30;100.00
6038;BME280;3047;42.600;23.470;2023-02-04T05:40:24;92572.22;;;2.18;100.00
6038;BME280;3047;42.600;23.470;2023-02-04T05:42:50;92575.50;;;2.25;100.00
6038;BME280;3047;42.600;23.470;2023-02-04T05:45:17;92573.84;;;2.22;100.00
6038;BME280;3047;42.600;23.470;2023-02-04T05:47:44;92582.13;;;2.26;100.00
6038;BME280;3047;42.600;23.470;2023-02-04T05:50:13;92563.94;;;2.13;100.00
6038;BME280;3047;42.600;23.470;2023-02-04T05:52:39;92587.19;;;2.10;100.00
6038;BME280;3047;42.600;23.470;2023-02-04T05:55:07;92578.03;;;2.17;100.00
6038;BME280;3047;42.600;23.470;2023-02-04T05:57:35;92583.88;;;2.16;100.00
6038;BME280;3047;42.600;23.470;2023-02-04T06:00:04;92520.88;;;1.94;100.00
6038;BME280;3047;42.600;23.470;2023-02-04T06:02:31;92572.19;;;2.26;100.00
6038;BME280;3047;42.600;23.470;2023-02-04T06:04:58;92574.69;;;2.22;100.00
6038;BME280;3047;42.600;23.470;2023-02-04T06:07:26;92571.34;;;2.27;100.00
6038;BME280;3047;42.600;23.470;2023-02-04T06:09:53;92564.63;;;2.38;100.00
6038;BME280;3047;42.600;23.470;2023-02-04T06:12:20;92564.63;;;2.39;100.00
6038;BME280;3047;42.600;23.470;2023-02-04T06:14:46;92547.16;;;2.44;100.00
6038;BME280;3047;42.600;23.470;2023-02-04T06:17:13;92555.53;;;2.35;100.00
6038;BME280;3047;42.600;23.470;2023-02-04T06:19:40;92556.34;;;2.33;100.00
6038;BME280;3047;42.600;23.470;2023-02-04T06:22:07;92553.78;;;2.45;100.00
6038;BME280;3047;42.600;23.470;2023-02-04T06:24:35;92560.41;;;2.46;100.00
6038;BME280;3047;42.600;23.470;2023-02-04T06:27:01;92558.78;;;2.42;100.00
6038;BME280;3047;42.600;23.470;2023-02-04T06:29:28;92579.38;;;2.67;100.00
6038;BME280;3047;42.600;23.470;2023-02-04T06:31:55;92573.59;;;2.65;100.00
6038;BME280;3047;42.600;23.470;2023-02-04T06:34:22;92596.00;;;2.69;100.00
6038;BME280;3047;42.600;23.470;2023-02-04T06:36:48;92562.81;;;2.61;100.00
6038;BME280;3047;42.600;23.470;2023-02-04T06:39:15;92587.63;;;2.80;100.00
6038;BME280;3047;42.600;23.470;2023-02-04T06:41:43;92587.59;;;2.84;100.00
6038;BME280;3047;42.600;23.470;2023-02-04T06:44:10;92580.06;;;2.87;100.00
6038;BME280;3047;42.600;23.470;2023-02-04T06:46:36;92574.19;;;2.94;100.00
6038;BME280;3047;42.600;23.470;2023-02-04T06:49:03;92515.56;;;2.46;100.00
6038;BME280;3047;42.600;23.470;2023-02-04T06:51:30;92581.69;;;2.91;100.00
6038;BME280;3047;42.600;23.470;2023-02-04T06:53:58;92588.38;;;2.89;100.00
6038;BME280;3047;42.600;23.470;2023-02-04T06:56:24;92599.22;;;2.82;100.00
6038;BME280;3047;42.600;23.470;2023-02-04T06:58:55;92569.22;;;2.91;99.24
6038;BME280;3047;42.600;23.470;2023-02-04T07:01:21;92593.19;;;3.11;98.41
6038;BME280;3047;42.600;23.470;2023-02-04T07:03:48;92594.88;;;3.09;98.58
6038;BME280;3047;42.600;23.470;2023-02-04T07:06:15;92591.50;;;3.11;97.93
6038;BME280;3047;42.600;23.470;2023-02-04T07:08:41;92562.63;;;2.89;97.61
6038;BME280;3047;42.600;23.470;2023-02-04T07:11:08;92562.47;;;3.03;98.86
6038;BME280;3047;42.600;23.470;2023-02-04T07:13:35;92596.44;;;3.19;98.24
6038;BME280;3047;42.600;23.470;2023-02-04T07:16:03;92578.16;;;3.18;97.46
6038;BME280;3047;42.600;23.470;2023-02-04T07:18:31;92598.91;;;3.25;97.21
6038;BME280;3047;42.600;23.470;2023-02-04T07:20:58;92578.09;;;3.23;96.90
6038;BME280;3047;42.600;23.470;2023-02-04T07:23:25;92578.06;;;3.29;97.12
6038;BME280;3047;42.600;23.470;2023-02-04T07:25:52;92555.72;;;3.15;96.63
6038;BME280;3047;42.600;23.470;2023-02-04T07:28:20;92588.56;;;3.62;97.15
6038;BME280;3047;42.600;23.470;2023-02-04T07:30:47;92550.53;;;4.08;93.80
6038;BME280;3047;42.600;23.470;2023-02-04T07:33:15;92565.38;;;4.20;93.48
6038;BME280;3047;42.600;23.470;2023-02-04T07:35:41;92567.59;;;4.41;93.26
6038;BME280;3047;42.600;23.470;2023-02-04T07:38:08;92568.53;;;4.33;92.65
6038;BME280;3047;42.600;23.470;2023-02-04T07:40:35;92550.63;;;4.02;92.87
6038;BME280;3047;42.600;23.470;2023-02-04T07:43:03;92581.59;;;3.90;94.39
6038;BME280;3047;42.600;23.470;2023-02-04T07:45:30;92578.22;;;3.94;95.28
6038;BME280;3047;42.600;23.470;2023-02-04T07:47:57;92569.88;;;3.95;95.23
6038;BME280;3047;42.600;23.470;2023-02-04T07:50:25;92563.06;;;4.05;94.28
6038;BME280;3047;42.600;23.470;2023-02-04T07:52:51;92544.81;;;4.01;93.72
6038;BME280;3047;42.600;23.470;2023-02-04T07:55:18;92565.69;;;3.95;94.21
6038;BME280;3047;42.600;23.470;2023-02-04T07:57:45;92542.34;;;3.96;94.29
6038;BME280;3047;42.600;23.470;2023-02-04T08:00:13;92484.41;;;3.68;94.32
6038;BME280;3047;42.600;23.470;2023-02-04T08:02:40;92544.66;;;4.12;93.27
6038;BME280;3047;42.600;23.470;2023-02-04T08:05:08;92537.38;;;3.95;93.96
6038;BME280;3047;42.600;23.470;2023-02-04T08:07:36;92551.38;;;4.08;92.90
6038;BME280;3047;42.600;23.470;2023-02-04T08:10:04;92548.03;;;4.08;93.46
6038;BME280;3047;42.600;23.470;2023-02-04T08:12:32;92522.53;;;3.83;94.52
6038;BME280;3047;42.600;23.470;2023-02-04T08:14:59;92556.34;;;4.11;93.95
6038;BME280;3047;42.600;23.470;2023-02-04T08:17:26;92563.91;;;4.07;94.94
6038;BME280;3047;42.600;23.470;2023-02-04T08:19:53;92553.81;;;4.14;94.20
6038;BME280;3047;42.600;23.470;2023-02-04T08:22:20;92554.53;;;4.22;93.87
6038;BME280;3047;42.600;23.470;2023-02-04T08:24:49;92550.38;;;4.21;94.50
6038;BME280;3047;42.600;23.470;2023-02-04T08:27:15;92547.88;;;4.20;94.70
6038;BME280;3047;42.600;23.470;2023-02-04T08:29:42;92540.59;;;4.06;95.60
6038;BME280;3047;42.600;23.470;2023-02-04T08:34:50;92536.41;;;4.07;95.32
6038;BME280;3047;42.600;23.470;2023-02-04T08:37:17;92544.53;;;4.22;94.90
6038;BME280;3047;42.600;23.470;2023-02-04T08:39:44;92543.78;;;4.16;95.91
6038;BME280;3047;42.600;23.470;2023-02-04T08:42:13;92551.31;;;4.14;96.39
6038;BME280;3047;42.600;23.470;2023-02-04T08:44:39;92543.72;;;4.22;96.36
6038;BME280;3047;42.600;23.470;2023-02-04T08:47:06;92495.72;;;3.97;96.69
6038;BME280;3047;42.600;23.470;2023-02-04T08:49:34;92523.81;;;4.13;97.44
6038;BME280;3047;42.600;23.470;2023-02-04T08:52:01;92543.56;;;4.31;96.79
6038;BME280;3047;42.600;23.470;2023-02-04T08:54:28;92542.78;;;4.28;96.55
6038;BME280;3047;42.600;23.470;2023-02-04T08:56:55;92556.03;;;4.33;96.72
6038;BME280;3047;42.600;23.470;2023-02-04T08:59:23;92550.22;;;4.34;95.30
6038;BME280;3047;42.600;23.470;2023-02-04T09:01:51;92558.56;;;4.31;96.06
6038;BME280;3047;42.600;23.470;2023-02-04T09:04:18;92557.56;;;4.46;94.69
6038;BME280;3047;42.600;23.470;2023-02-04T09:06:46;92555.00;;;4.47;94.86
6038;BME280;3047;42.600;23.470;2023-02-04T09:09:13;92537.75;;;4.31;95.66
6038;BME280;3047;42.600;23.470;2023-02-04T09:11:40;92535.97;;;4.37;95.02
6038;BME280;3047;42.600;23.470;2023-02-04T09:14:07;92548.44;;;4.40;96.21
6038;BME280;3047;42.600;23.470;2023-02-04T09:16:35;92535.91;;;4.43;96.16
6038;BME280;3047;42.600;23.470;2023-02-04T09:19:02;92541.69;;;4.47;96.45
6038;BME280;3047;42.600;23.470;2023-02-04T09:21:30;92536.53;;;4.58;96.52
6038;BME280;3047;42.600;23.470;2023-02-04T09:23:57;92529.09;;;4.53;96.41
6038;BME280;3047;42.600;23.470;2023-02-04T09:26:23;92535.94;;;4.40;95.83
6038;BME280;3047;42.600;23.470;2023-02-04T09:28:50;92528.50;;;4.36;96.51
6038;BME280;3047;42.600;23.470;2023-02-04T09:31:17;92526.00;;;4.36;96.72
6038;BME280;3047;42.600;23.470;2023-02-04T09:33:45;92534.16;;;4.49;95.45
6038;BME280;3047;42.600;23.470;2023-02-04T09:36:12;92495.44;;;4.18;95.72
6038;BME280;3047;42.600;23.470;2023-02-04T09:38:38;92527.41;;;4.55;95.74
6038;BME280;3047;42.600;23.470;2023-02-04T09:41:07;92523.25;;;4.54;95.62
6038;BME280;3047;42.600;23.470;2023-02-04T09:43:38;92491.94;;;4.30;96.37
6038;BME280;3047;42.600;23.470;2023-02-04T09:46:08;92529.69;;;4.69;93.18
6038;BME280;3047;42.600;23.470;2023-02-04T09:48:40;92521.41;;;4.65;92.51
6038;BME280;3047;42.600;23.470;2023-02-04T09:51:12;92514.78;;;4.63;93.03
6038;BME280;3047;42.600;23.470;2023-02-04T09:53:42;92524.78;;;4.61;94.45
6038;BME280;3047;42.600;23.470;2023-02-04T09:56:09;92513.28;;;4.50;96.32
6038;BME280;3047;42.600;23.470;2023-02-04T09:58:37;92508.47;;;4.39;97.62
6038;BME280;3047;42.600;23.470;2023-02-04T10:01:10;92512.47;;;4.49;98.34
6038;BME280;3047;42.600;23.470;2023-02-04T10:03:38;92508.28;;;4.50;99.64
6038;BME280;3047;42.600;23.470;2023-02-04T10:06:12;92501.66;;;4.50;100.00
6038;BME280;3047;42.600;23.470;2023-02-04T10:08:39;92491.75;;;4.42;100.00
6038;BME280;3047;42.600;23.470;2023-02-04T10:11:06;92483.28;;;4.50;100.00
6038;BME280;3047;42.600;23.470;2023-02-04T10:13:37;92486.69;;;4.47;100.00
6038;BME280;3047;42.600;23.470;2023-02-04T10:16:12;92437.94;;;4.18;100.00
6038;BME280;3047;42.600;23.470;2023-02-04T10:18:40;92478.34;;;4.45;100.00
6038;BME280;3047;42.600;23.470;2023-02-04T10:21:14;92472.47;;;4.51;100.00
6038;BME280;3047;42.600;23.470;2023-02-04T10:23:42;92469.75;;;4.63;100.00
6038;BME280;3047;42.600;23.470;2023-02-04T10:26:10;92468.00;;;4.68;99.89
6038;BME280;3047;42.600;23.470;2023-02-04T10:28:37;92458.25;;;4.54;99.11
6038;BME280;3047;42.600;23.470;2023-02-04T10:31:06;92476.56;;;4.55;99.03
6038;BME280;3047;42.600;23.470;2023-02-04T10:33:33;92464.06;;;4.55;98.82
6038;BME280;3047;42.600;23.470;2023-02-04T10:36:04;92463.94;;;4.62;99.18
6038;BME280;3047;42.600;23.470;2023-02-04T10:38:32;92467.47;;;4.51;98.58
6038;BME280;3047;42.600;23.470;2023-02-04T10:41:00;92447.50;;;4.47;98.00
6038;BME280;3047;42.600;23.470;2023-02-04T10:43:28;92461.56;;;4.53;97.73
6038;BME280;3047;42.600;23.470;2023-02-04T10:45:57;92460.63;;;4.62;97.12
6038;BME280;3047;42.600;23.470;2023-02-04T10:48:24;92459.75;;;4.63;97.33
6038;BME280;3047;42.600;23.470;2023-02-04T10:50:52;92459.91;;;4.52;98.01
6038;BME280;3047;42.600;23.470;2023-02-04T10:53:21;92463.31;;;4.48;98.83
6038;BME280;3047;42.600;23.470;2023-02-04T10:56:13;92456.59;;;4.52;99.54
6038;BME280;3047;42.600;23.470;2023-02-04T10:58:41;92447.47;;;4.49;100.00
6038;BME280;3047;42.600;23.470;2023-02-04T11:01:08;92436.94;;;4.30;100.00
6038;BME280;3047;42.600;23.470;2023-02-04T11:03:36;92447.66;;;4.38;100.00
6038;BME280;3047;42.600;23.470;2023-02-04T11:06:08;92457.41;;;4.52;100.00
6038;BME280;3047;42.600;23.470;2023-02-04T11:08:36;92440.88;;;4.43;100.00
6038;BME280;3047;42.600;23.470;2023-02-04T11:11:05;92447.41;;;4.52;100.00
6038;BME280;3047;42.600;23.470;2023-02-04T11:13:41;92449.88;;;4.54;100.00
6038;BME280;3047;42.600;23.470;2023-02-04T11:16:11;92423.44;;;4.40;100.00
6038;BME280;3047;42.600;23.470;2023-02-04T11:18:47;92442.47;;;4.49;100.00
6038;BME280;3047;42.600;23.470;2023-02-04T11:21:22;92445.16;;;4.38;100.00
6038;BME280;3047;42.600;23.470;2023-02-04T11:23:49;92419.25;;;4.42;100.00
6038;BME280;3047;42.600;23.470;2023-02-04T11:26:19;92440.72;;;4.54;100.00
6038;BME280;3047;42.600;23.470;2023-02-04T11:29:23;92431.53;;;4.55;100.00
6038;BME280;3047;42.600;23.470;2023-02-04T11:32:01;92436.44;;;4.61;100.00
6038;BME280;3047;42.600;23.470;2023-02-04T11:34:44;92435.53;;;4.65;100.00
6038;BME280;3047;42.600;23.470;2023-02-04T11:37:35;92435.31;;;4.79;100.00
6038;BME280;3047;42.600;23.470;2023-02-04T11:40:20;92429.41;;;4.81;100.00
6038;BME280;3047;42.600;23.470;2023-02-04T11:42:48;92431.97;;;4.80;100.00
6038;BME280;3047;42.600;23.470;2023-02-04T11:45:19;92436.09;;;4.81;100.00
6038;BME280;3047;42.600;23.470;2023-02-04T11:47:46;92431.13;;;4.78;100.00
6038;BME280;3047;42.600;23.470;2023-02-04T11:50:18;92404.16;;;4.47;100.00
6038;BME280;3047;42.600;23.470;2023-02-04T11:52:45;92438.69;;;4.76;100.00
6038;BME280;3047;42.600;23.470;2023-02-04T11:55:12;92430.34;;;4.76;100.00
6038;BME280;3047;42.600;23.470;2023-02-04T11:57:40;92423.72;;;4.73;100.00
6038;BME280;3047;42.600;23.470;2023-02-04T12:00:13;92409.63;;;4.70;100.00
6038;BME280;3047;42.600;23.470;2023-02-04T12:02:44;92428.03;;;4.66;100.00
6038;BME280;3047;42.600;23.470;2023-02-04T12:05:12;92415.00;;;4.47;100.00
6038;BME280;3047;42.600;23.470;2023-02-04T12:07:39;92420.00;;;4.47;100.00
6038;BME280;3047;42.600;23.470;2023-02-04T12:10:11;92403.44;;;4.40;100.00
6038;BME280;3047;42.600;23.470;2023-02-04T12:12:42;92377.78;;;4.29;100.00
6038;BME280;3047;42.600;23.470;2023-02-04T12:15:14;92395.97;;;4.37;100.00
6038;BME280;3047;42.600;23.470;2023-02-04T12:17:45;92411.00;;;4.36;100.00
6038;BME280;3047;42.600;23.470;2023-02-04T12:20:12;92404.25;;;4.41;100.00
6038;BME280;3047;42.600;23.470;2023-02-04T12:22:38;92406.75;;;4.42;100.00
6038;BME280;3047;42.600;23.470;2023-02-04T12:25:06;92403.56;;;4.33;100.00
6038;BME280;3047;42.600;23.470;2023-02-04T12:27:33;92406.91;;;4.32;100.00
6038;BME280;3047;42.600;23.470;2023-02-04T12:30:00;92405.19;;;4.35;100.00
6038;BME280;3047;42.600;23.470;2023-02-04T12:32:26;92404.53;;;4.26;100.00
6038;BME280;3047;42.600;23.470;2023-02-04T12:34:54;92401.75;;;4.42;100.00
6038;BME280;3047;42.600;23.470;2023-02-04T12:37:21;92399.44;;;4.30;100.00
6038;BME280;3047;42.600;23.470;2023-02-04T12:39:48;92400.31;;;4.28;100.00
6038;BME280;3047;42.600;23.470;2023-02-04T12:42:15;92397.13;;;4.18;100.00
6038;BME280;3047;42.600;23.470;2023-02-04T12:44:41;92399.44;;;4.29;100.00
6038;BME280;3047;42.600;23.470;2023-02-04T12:47:08;92394.72;;;4.12;100.00
6038;BME280;3047;42.600;23.470;2023-02-04T12:49:35;92400.59;;;4.09;100.00
6038;BME280;3047;42.600;23.470;2023-02-04T12:52:04;92393.31;;;3.97;100.00
6038;BME280;3047;42.600;23.470;2023-02-04T12:54:30;92397.44;;;3.98;100.00
6038;BME280;3047;42.600;23.470;2023-02-04T12:56:57;92389.69;;;4.15;100.00
6038;BME280;3047;42.600;23.470;2023-02-04T12:59:24;92371.63;;;3.96;100.00
6038;BME280;3047;42.600;23.470;2023-02-04T13:01:51;92394.88;;;4.03;100.00
6038;BME280;3047;42.600;23.470;2023-02-04T13:04:18;92389.00;;;4.05;100.00
6038;BME280;3047;42.600;23.470;2023-02-04T13:06:45;92392.44;;;3.98;100.00
6038;BME280;3047;42.600;23.470;2023-02-04T13:09:13;92392.34;;;4.06;100.00
6038;BME280;3047;42.600;23.470;2023-02-04T13:11:40;92396.44;;;4.08;100.00
6038;BME280;3047;42.600;23.470;2023-02-04T13:14:06;92398.94;;;4.10;100.00
6038;BME280;3047;42.600;23.470;2023-02-04T13:16:33;92398.03;;;4.14;100.00
6038;BME280;3047;42.600;23.470;2023-02-04T13:19:00;92401.47;;;4.07;100.00
6038;BME280;3047;42.600;23.470;2023-02-04T13:21:26;92398.06;;;4.11;100.00